createdAt,value
2022-12-27T00:02:06.265Z,38.72
2022-12-27T00:04:33.454Z,45.83
2022-12-27T00:07:01.518Z,41.78
2022-12-27T00:09:28.633Z,34.72
2022-12-27T00:11:59.796Z,33.42
2022-12-27T00:14:27.853Z,40.08
2022-12-27T00:16:54.942Z,36.58
2022-12-27T00:19:22.483Z,40.97
2022-12-27T00:21:49.581Z,38.55
2022-12-27T00:24:16.702Z,46.08
2022-12-27T00:26:44.400Z,39.88
2022-12-27T00:29:11.510Z,40.25
2022-12-27T00:31:39.000Z,56.55
2022-12-27T00:34:08.088Z,56.35
2022-12-27T00:36:35.394Z,57.38
2022-12-27T00:39:03.536Z,65.97
2022-12-27T00:41:30.787Z,59.45
2022-12-27T00:43:57.852Z,66.25
2022-12-27T00:46:24.872Z,67.28
2022-12-27T00:48:52.436Z,56.35
2022-12-27T00:51:22.122Z,77.10
2022-12-27T00:53:50.841Z,48.15
2022-12-27T00:56:26.446Z,60.20
2022-12-27T00:58:58.596Z,68.97
2022-12-27T01:01:27.888Z,70.20
2022-12-27T01:03:56.328Z,85.95
2022-12-27T01:06:29.204Z,66.20
2022-12-27T01:08:57.298Z,65.63
2022-12-27T01:11:24.851Z,74.45
2022-12-27T01:13:52.042Z,78.15
2022-12-27T01:16:22.865Z,100.13
2022-12-27T01:18:50.345Z,81.38
2022-12-27T01:21:20.620Z,89.18
2022-12-27T01:23:47.847Z,93.90
2022-12-27T01:26:21.938Z,84.78
2022-12-27T01:28:50.164Z,95.22
2022-12-27T01:31:20.649Z,82.60
2022-12-27T01:33:47.989Z,99.55
2022-12-27T01:36:21.080Z,104.68
2022-12-27T01:38:49.362Z,82.35
2022-12-27T01:41:46.884Z,85.05
2022-12-27T01:44:35.561Z,109.30
2022-12-27T01:47:04.073Z,101.50
2022-12-27T01:49:31.313Z,79.90
2022-12-27T01:51:58.987Z,88.43
2022-12-27T01:54:26.315Z,86.43
2022-12-27T01:56:55.956Z,112.05
2022-12-27T01:59:23.225Z,96.95
2022-12-27T02:01:51.506Z,89.65
2022-12-27T02:04:20.984Z,77.55
2022-12-27T02:06:48.612Z,102.75
2022-12-27T02:09:24.784Z,122.68
2022-12-27T02:11:57.121Z,90.93
2022-12-27T02:14:28.300Z,89.75
2022-12-27T02:16:58.003Z,74.93
2022-12-27T02:19:46.001Z,82.38
2022-12-27T02:22:57.106Z,95.70
2022-12-27T02:25:50.593Z,89.28
2022-12-27T02:28:42.454Z,91.30
2022-12-27T02:31:38.117Z,86.13
2022-12-27T02:34:14.738Z,88.13
2022-12-27T02:36:45.417Z,83.20
2022-12-27T02:39:15.479Z,69.63
2022-12-27T02:42:02.761Z,91.93
2022-12-27T02:44:48.508Z,84.40
2022-12-27T02:47:42.839Z,74.03
2022-12-27T02:50:30.983Z,75.88
2022-12-27T02:53:08.535Z,90.85
2022-12-27T02:56:25.402Z,96.35
2022-12-27T02:59:13.856Z,100.30
2022-12-27T03:02:39.019Z,90.35
2022-12-27T03:07:46.934Z,75.90
2022-12-27T03:10:47.577Z,91.00
2022-12-27T03:13:59.468Z,72.75
2022-12-27T03:16:31.948Z,91.25
2022-12-27T03:19:02.094Z,97.25
2022-12-27T03:21:52.845Z,78.88
2022-12-27T03:24:42.444Z,83.53
2022-12-27T03:27:18.573Z,80.90
2022-12-27T03:30:10.733Z,75.25
2022-12-27T03:33:01.489Z,72.43
2022-12-27T03:35:35.125Z,69.47
2022-12-27T03:38:06.241Z,65.70
2022-12-27T03:40:40.973Z,70.63
2022-12-27T03:43:16.603Z,80.55
2022-12-27T03:46:32.302Z,66.22
2022-12-27T03:49:15.272Z,62.38
2022-12-27T03:51:49.031Z,55.03
2022-12-27T03:54:28.203Z,63.60
2022-12-27T03:57:02.096Z,60.70
2022-12-27T03:59:29.488Z,52.22
2022-12-27T04:01:58.101Z,51.92
2022-12-27T04:04:26.577Z,51.88
2022-12-27T04:06:54.337Z,48.38
2022-12-27T04:09:40.051Z,57.10
2022-12-27T04:12:25.900Z,46.10
2022-12-27T04:15:11.762Z,48.25
2022-12-27T04:17:57.500Z,50.45
2022-12-27T04:20:44.111Z,40.92
2022-12-27T04:23:29.761Z,66.68
2022-12-27T04:26:15.533Z,39.85
2022-12-27T04:29:01.201Z,48.80
2022-12-27T04:31:47.020Z,54.65
2022-12-27T04:34:33.181Z,42.90
2022-12-27T04:37:00.220Z,56.38
2022-12-27T04:39:27.346Z,44.35
2022-12-27T04:42:13.293Z,55.38
2022-12-27T04:45:03.254Z,52.88
2022-12-27T04:47:50.490Z,55.65
2022-12-27T04:50:43.126Z,56.22
2022-12-27T04:53:34.338Z,66.07
2022-12-27T04:56:01.723Z,55.97
2022-12-27T04:58:29.262Z,75.82
2022-12-27T05:01:18.065Z,52.92
2022-12-27T05:03:46.964Z,63.13
2022-12-27T05:06:14.075Z,73.65
2022-12-27T05:09:00.483Z,81.28
2022-12-27T05:11:46.050Z,66.40
2022-12-27T05:14:15.602Z,71.60
2022-12-27T05:16:44.009Z,72.13
2022-12-27T05:19:13.324Z,77.32
2022-12-27T05:22:06.168Z,58.30
2022-12-27T05:24:51.713Z,64.25
2022-12-27T05:27:19.219Z,65.38
2022-12-27T05:29:47.037Z,57.20
2022-12-27T05:32:14.137Z,62.10
2022-12-27T05:34:41.920Z,63.80
2022-12-27T05:37:09.326Z,52.85
2022-12-27T05:39:36.492Z,54.22
2022-12-27T05:42:04.157Z,60.78
2022-12-27T05:44:31.291Z,46.72
2022-12-27T05:46:58.397Z,47.30
2022-12-27T05:49:25.567Z,57.33
2022-12-27T05:51:52.608Z,42.03
2022-12-27T05:54:19.670Z,59.25
2022-12-27T05:56:46.843Z,47.25
2022-12-27T05:59:13.882Z,52.28
2022-12-27T06:01:41.096Z,46.15
2022-12-27T06:04:10.041Z,47.58
2022-12-27T06:06:37.091Z,47.45
2022-12-27T06:09:04.183Z,56.78
2022-12-27T06:11:31.275Z,57.00
2022-12-27T06:13:58.289Z,52.63
2022-12-27T06:16:25.401Z,42.00
2022-12-27T06:18:52.526Z,56.58
2022-12-27T06:21:21.482Z,51.70
2022-12-27T06:23:49.948Z,50.92
2022-12-27T06:26:20.807Z,56.40
2022-12-27T06:28:49.880Z,63.80
2022-12-27T06:31:19.277Z,65.22
2022-12-27T06:33:48.122Z,68.88
2022-12-27T06:36:18.471Z,60.92
2022-12-27T06:38:45.850Z,62.67
2022-12-27T06:41:15.717Z,60.10
2022-12-27T06:43:42.749Z,67.35
2022-12-27T06:46:17.917Z,74.85
2022-12-27T06:48:46.694Z,73.45
2022-12-27T06:51:16.440Z,67.82
2022-12-27T06:53:43.494Z,77.50
2022-12-27T06:56:13.195Z,78.22
2022-12-27T06:58:40.302Z,83.13
2022-12-27T07:01:12.225Z,82.70
2022-12-27T07:03:39.859Z,87.75
2022-12-27T07:06:09.675Z,83.10
2022-12-27T07:08:36.943Z,86.22
2022-12-27T07:11:06.792Z,84.07
2022-12-27T07:13:35.681Z,103.22
2022-12-27T07:16:07.474Z,87.70
2022-12-27T07:18:35.042Z,86.38
2022-12-27T07:21:10.800Z,90.35
2022-12-27T07:23:39.091Z,85.05
2022-12-27T07:26:11.257Z,107.45
2022-12-27T07:28:39.029Z,90.15
2022-12-27T07:31:11.247Z,109.32
2022-12-27T07:33:38.686Z,89.72
2022-12-27T07:36:09.036Z,106.78
2022-12-27T07:38:36.632Z,110.07
2022-12-27T07:41:04.391Z,100.22
2022-12-27T07:43:35.739Z,101.95
2022-12-27T07:46:07.484Z,86.85
2022-12-27T07:48:34.645Z,102.95
2022-12-27T07:51:01.954Z,91.03
2022-12-27T07:53:29.891Z,92.15
2022-12-27T07:55:56.985Z,94.70
2022-12-27T07:58:25.079Z,86.00
2022-12-27T08:00:53.236Z,86.72
2022-12-27T08:03:20.529Z,93.97
2022-12-27T08:05:54.411Z,107.40
2022-12-27T08:10:53.258Z,85.78
2022-12-27T08:13:20.309Z,95.47
2022-12-27T08:15:47.453Z,90.72
2022-12-27T08:18:14.463Z,76.03
2022-12-27T08:20:41.544Z,89.53
2022-12-27T08:23:08.665Z,88.72
2022-12-27T08:25:35.860Z,81.88
2022-12-27T08:28:07.457Z,82.15
2022-12-27T08:30:34.631Z,91.15
2022-12-27T08:33:02.660Z,79.93
2022-12-27T08:38:16.850Z,89.80
2022-12-27T08:40:46.010Z,74.50
2022-12-27T08:43:13.586Z,68.57
2022-12-27T08:45:40.925Z,78.70
2022-12-27T08:48:09.105Z,71.55
2022-12-27T08:50:36.345Z,72.80
2022-12-27T08:53:04.861Z,82.93
2022-12-27T08:55:33.011Z,70.75
2022-12-27T08:58:02.277Z,76.07
2022-12-27T09:00:29.974Z,73.82
2022-12-27T09:02:57.617Z,75.05
2022-12-27T09:05:26.286Z,75.75
2022-12-27T09:07:53.564Z,69.13
2022-12-27T09:10:23.652Z,69.82
2022-12-27T09:12:50.963Z,72.45
2022-12-27T09:15:18.093Z,63.60
2022-12-27T09:17:45.264Z,66.03
2022-12-27T09:20:13.076Z,71.10
2022-12-27T09:22:40.534Z,64.75
2022-12-27T09:25:08.450Z,76.50
2022-12-27T09:27:37.640Z,70.70
2022-12-27T09:30:06.190Z,70.30
2022-12-27T09:32:33.662Z,66.18
2022-12-27T09:35:01.036Z,59.90
2022-12-27T09:37:28.253Z,54.10
2022-12-27T09:39:55.403Z,62.63
2022-12-27T09:45:40.740Z,69.50
2022-12-27T09:48:47.571Z,59.13
2022-12-27T09:51:20.367Z,61.65
2022-12-27T09:54:01.978Z,58.42
2022-12-27T09:56:54.445Z,60.53
2022-12-27T09:59:23.869Z,62.65
2022-12-27T10:01:51.310Z,54.75
2022-12-27T10:04:19.575Z,60.10
2022-12-27T10:06:49.901Z,55.10
2022-12-27T10:09:40.037Z,60.72
2022-12-27T10:12:34.787Z,44.80
2022-12-27T10:15:05.005Z,62.33
2022-12-27T10:17:58.984Z,55.10
2022-12-27T10:20:55.136Z,59.47
2022-12-27T10:23:33.720Z,49.55
2022-12-27T10:26:06.491Z,52.55
2022-12-27T10:28:44.976Z,57.38
2022-12-27T10:31:18.870Z,51.95
2022-12-27T10:33:48.303Z,53.30
2022-12-27T10:36:27.694Z,53.53
2022-12-27T10:38:55.569Z,51.03
2022-12-27T10:41:25.386Z,41.95
2022-12-27T10:43:54.365Z,48.47
2022-12-27T10:46:27.633Z,46.75
2022-12-27T10:49:21.068Z,55.95
2022-12-27T10:51:50.235Z,54.25
2022-12-27T10:54:23.914Z,53.67
2022-12-27T10:56:51.256Z,55.33
2022-12-27T10:59:21.458Z,53.95
2022-12-27T11:02:09.919Z,42.58
2022-12-27T11:04:37.001Z,50.63
2022-12-27T11:07:03.997Z,65.97
2022-12-27T11:09:43.407Z,51.95
2022-12-27T11:12:20.337Z,58.60
2022-12-27T11:15:22.747Z,48.13
2022-12-27T11:18:00.031Z,56.03
2022-12-27T11:20:48.131Z,57.78
2022-12-27T11:23:18.853Z,60.00
2022-12-27T11:26:00.840Z,54.92
2022-12-27T11:28:43.848Z,61.00
2022-12-27T11:31:14.837Z,57.55
2022-12-27T11:33:51.633Z,42.80
2022-12-27T11:36:29.127Z,55.35
2022-12-27T11:38:56.586Z,51.92
2022-12-27T11:41:31.636Z,52.38
2022-12-27T11:44:05.464Z,57.20
2022-12-27T11:48:59.663Z,60.80
2022-12-27T11:51:56.935Z,49.33
2022-12-27T11:55:09.014Z,54.83
2022-12-27T11:58:13.439Z,49.88
2022-12-27T12:01:21.896Z,58.53
2022-12-27T12:04:05.756Z,54.67
2022-12-27T12:06:44.942Z,46.50
2022-12-27T12:09:30.681Z,59.40
2022-12-27T12:12:23.479Z,52.83
2022-12-27T12:15:34.266Z,53.15
2022-12-27T12:18:29.700Z,56.05
2022-12-27T12:21:24.986Z,51.60
2022-12-27T12:24:13.568Z,56.72
2022-12-27T12:26:40.586Z,53.70
2022-12-27T12:29:19.559Z,58.20
2022-12-27T12:32:08.419Z,54.55
2022-12-27T12:35:12.589Z,46.90
2022-12-27T12:38:04.964Z,62.35
2022-12-27T12:40:37.823Z,50.42
2022-12-27T12:43:31.936Z,55.90
2022-12-27T12:46:20.473Z,54.92
2022-12-27T12:49:23.492Z,48.22
2022-12-27T12:52:19.173Z,52.55
2022-12-27T12:55:19.919Z,45.15
2022-12-27T12:58:10.950Z,47.08
2022-12-27T13:00:47.256Z,43.13
2022-12-27T13:03:46.207Z,35.88
2022-12-27T13:06:39.896Z,52.25
2022-12-27T13:09:37.285Z,53.33
2022-12-27T13:12:32.702Z,48.72
2022-12-27T13:15:11.917Z,47.92
2022-12-27T13:18:03.216Z,54.22
2022-12-27T13:21:03.936Z,41.13
2022-12-27T13:23:58.360Z,38.67
2022-12-27T13:29:43.482Z,50.58
2022-12-27T13:32:33.331Z,41.05
2022-12-27T13:35:27.303Z,42.83
2022-12-27T13:38:18.639Z,39.17
2022-12-27T13:40:51.793Z,44.47
2022-12-27T13:43:37.294Z,44.72
2022-12-27T13:46:42.439Z,40.78
2022-12-27T13:49:28.150Z,47.35
2022-12-27T13:52:07.282Z,48.65
2022-12-27T13:54:40.073Z,43.60
2022-12-27T13:57:31.512Z,41.63
2022-12-27T14:00:27.716Z,58.10
2022-12-27T14:03:03.947Z,56.67
2022-12-27T14:05:58.458Z,44.20
2022-12-27T14:09:01.188Z,56.45
2022-12-27T14:11:49.382Z,67.03
2022-12-27T14:14:18.632Z,46.78
2022-12-27T14:16:59.701Z,48.42
2022-12-27T14:20:00.190Z,40.45
2022-12-27T14:22:49.708Z,44.75
2022-12-27T14:25:23.907Z,51.97
2022-12-27T14:28:24.507Z,42.20
2022-12-27T14:31:17.710Z,58.00
2022-12-27T14:34:07.329Z,53.00
2022-12-27T14:36:58.131Z,54.13
2022-12-27T14:39:46.836Z,45.40
2022-12-27T14:42:36.647Z,52.30
2022-12-27T14:45:27.717Z,53.88
2022-12-27T14:48:32.160Z,50.53
2022-12-27T14:51:32.704Z,61.28
2022-12-27T14:54:16.408Z,51.03
2022-12-27T14:57:08.234Z,52.63
2022-12-27T14:59:58.429Z,55.95
2022-12-27T15:02:25.511Z,72.20
2022-12-27T15:05:11.023Z,60.38
2022-12-27T15:07:44.001Z,50.10
2022-12-27T15:10:48.018Z,48.63
2022-12-27T15:13:24.123Z,65.38
2022-12-27T15:16:19.036Z,49.83
2022-12-27T15:18:58.241Z,58.60
2022-12-27T15:21:53.012Z,63.67
2022-12-27T15:24:31.080Z,78.10
2022-12-27T15:27:42.095Z,78.97
2022-12-27T15:30:50.254Z,67.78
2022-12-27T15:33:24.996Z,68.97
2022-12-27T15:36:09.945Z,68.53
2022-12-27T15:38:54.074Z,66.68
2022-12-27T15:41:48.494Z,92.82
2022-12-27T15:44:34.735Z,76.28
2022-12-27T15:47:04.438Z,79.35
2022-12-27T15:49:46.522Z,95.63
2022-12-27T15:52:28.515Z,89.13
2022-12-27T15:55:37.352Z,93.22
2022-12-27T15:58:24.589Z,87.97
2022-12-27T16:01:22.209Z,86.22
2022-12-27T16:03:53.474Z,132.88
2022-12-27T16:06:50.820Z,113.75
2022-12-27T16:09:24.049Z,154.45
2022-12-27T16:12:03.497Z,129.02
2022-12-27T16:14:34.250Z,166.85
2022-12-27T16:17:24.280Z,212.00
2022-12-27T16:20:15.892Z,190.98
2022-12-27T16:23:04.439Z,261.85
2022-12-27T16:25:41.282Z,247.15
2022-12-27T16:28:14.068Z,293.77
2022-12-27T16:30:48.957Z,314.92
2022-12-27T16:33:28.509Z,304.33
2022-12-27T16:36:16.423Z,322.33
2022-12-27T16:38:52.696Z,300.70
2022-12-27T16:41:31.868Z,314.13
2022-12-27T16:44:02.206Z,326.58
2022-12-27T16:46:52.558Z,326.75
2022-12-27T16:49:46.488Z,304.08
2022-12-27T16:52:13.528Z,296.67
2022-12-27T16:55:03.345Z,234.88
2022-12-27T16:57:46.483Z,321.23
2022-12-27T17:00:58.497Z,340.97
2022-12-27T17:03:37.445Z,311.95
2022-12-27T17:06:35.320Z,317.30
2022-12-27T17:09:11.676Z,249.32
2022-12-27T17:11:50.904Z,227.95
2022-12-27T17:14:25.598Z,253.63
2022-12-27T17:16:57.425Z,239.02
2022-12-27T17:19:43.486Z,222.77
2022-12-27T17:22:16.548Z,218.05
2022-12-27T17:24:47.807Z,283.13
2022-12-27T17:27:43.978Z,286.80
2022-12-27T17:30:33.531Z,262.05
2022-12-27T17:33:21.875Z,241.95
2022-12-27T17:36:17.206Z,285.25
2022-12-27T17:39:01.805Z,256.85
2022-12-27T17:42:03.345Z,234.15
2022-12-27T17:44:48.282Z,242.75
2022-12-27T17:47:37.337Z,271.58
2022-12-27T17:50:11.923Z,214.38
2022-12-27T17:52:57.634Z,302.70
2022-12-27T17:55:47.202Z,215.77
2022-12-27T17:58:19.279Z,276.10
2022-12-27T18:00:54.912Z,282.08
2022-12-27T18:03:24.005Z,248.52
2022-12-27T18:05:51.056Z,250.40
2022-12-27T18:08:28.854Z,231.88
2022-12-27T18:10:57.904Z,240.75
2022-12-27T18:13:27.784Z,250.75
2022-12-27T18:15:55.800Z,225.70
2022-12-27T18:18:31.379Z,249.27
2022-12-27T18:21:01.355Z,223.93
2022-12-27T18:23:28.761Z,213.07
2022-12-27T18:26:13.413Z,230.93
2022-12-27T18:28:42.151Z,238.60
2022-12-27T18:31:19.493Z,265.45
2022-12-27T18:33:58.492Z,199.70
2022-12-27T18:36:57.056Z,225.88
2022-12-27T18:39:42.560Z,315.75
2022-12-27T18:42:17.062Z,245.05
2022-12-27T18:44:54.487Z,271.42
2022-12-27T18:47:24.542Z,266.23
2022-12-27T18:49:55.962Z,228.15
2022-12-27T18:52:31.709Z,226.07
2022-12-27T18:55:17.812Z,301.75
2022-12-27T18:57:45.520Z,358.23
2022-12-27T19:00:25.342Z,314.77
2022-12-27T19:02:54.799Z,267.65
2022-12-27T19:05:22.040Z,249.38
2022-12-27T19:08:08.549Z,253.88
2022-12-27T19:10:36.118Z,206.30
2022-12-27T19:13:03.435Z,195.15
2022-12-27T19:15:40.559Z,217.13
2022-12-27T19:18:22.463Z,187.40
2022-12-27T19:20:56.498Z,247.10
2022-12-27T19:23:34.426Z,216.50
2022-12-27T19:26:18.498Z,210.73
2022-12-27T19:31:22.211Z,218.20
2022-12-27T19:33:57.206Z,214.48
2022-12-27T19:36:32.861Z,192.95
2022-12-27T19:39:00.989Z,196.52
2022-12-27T19:41:28.194Z,198.18
2022-12-27T19:43:56.390Z,233.27
2022-12-27T19:46:30.788Z,211.15
2022-12-27T19:51:45.913Z,219.13
2022-12-27T19:54:21.350Z,194.88
2022-12-27T19:56:48.678Z,202.68
2022-12-27T19:59:25.230Z,170.05
2022-12-27T20:01:52.935Z,182.05
2022-12-27T20:04:20.197Z,190.70
2022-12-27T20:06:48.954Z,174.88
2022-12-27T20:09:18.416Z,209.13
2022-12-27T20:11:46.292Z,175.63
2022-12-27T20:14:14.787Z,176.73
2022-12-27T20:16:42.198Z,200.65
2022-12-27T20:19:16.002Z,199.88
2022-12-27T20:21:43.082Z,199.88
2022-12-27T20:24:13.605Z,192.73
2022-12-27T20:26:41.681Z,202.43
2022-12-27T20:29:09.956Z,212.38
2022-12-27T20:31:44.187Z,207.15
2022-12-27T20:34:12.792Z,185.45
2022-12-27T20:36:41.656Z,205.60
2022-12-27T20:39:08.803Z,211.60
2022-12-27T20:41:35.994Z,200.98
2022-12-27T20:44:03.336Z,192.35
2022-12-27T20:46:30.430Z,206.68
2022-12-27T20:48:57.709Z,178.93
2022-12-27T20:51:27.721Z,199.93
2022-12-27T20:53:57.598Z,189.27
2022-12-27T20:56:25.657Z,190.93
2022-12-27T20:58:53.217Z,196.07
2022-12-27T21:01:25.802Z,186.07
2022-12-27T21:03:55.648Z,149.88
2022-12-27T21:06:25.123Z,156.52
2022-12-27T21:08:57.294Z,159.57
2022-12-27T21:11:28.136Z,167.13
2022-12-27T21:13:55.900Z,151.48
2022-12-27T21:16:28.247Z,163.93
2022-12-27T21:18:57.030Z,154.32
2022-12-27T21:21:28.483Z,138.70
2022-12-27T21:23:59.913Z,135.45
2022-12-27T21:26:32.957Z,152.13
2022-12-27T21:29:01.024Z,144.02
2022-12-27T21:31:29.216Z,146.38
2022-12-27T21:33:56.778Z,145.93
2022-12-27T21:36:25.420Z,123.93
2022-12-27T21:38:53.746Z,128.85
2022-12-27T21:41:23.811Z,149.48
2022-12-27T21:43:51.445Z,104.70
2022-12-27T21:46:21.777Z,112.28
2022-12-27T21:48:53.416Z,93.68
2022-12-27T21:51:20.829Z,92.00
2022-12-27T21:53:48.156Z,78.00
2022-12-27T21:56:16.653Z,85.72
2022-12-27T21:58:44.939Z,72.88
2022-12-27T22:01:14.442Z,91.05
2022-12-27T22:03:43.863Z,71.50
2022-12-27T22:06:24.505Z,71.45
2022-12-27T22:08:54.120Z,88.45
2022-12-27T22:11:22.542Z,63.72
2022-12-27T22:13:50.498Z,76.38
2022-12-27T22:16:24.559Z,56.70
2022-12-27T22:18:52.782Z,68.63
2022-12-27T22:21:22.812Z,66.05
2022-12-27T22:23:52.032Z,71.10
2022-12-27T22:26:22.438Z,75.43
2022-12-27T22:28:49.783Z,68.68
2022-12-27T22:31:19.402Z,68.68
2022-12-27T22:33:47.530Z,72.47
2022-12-27T22:36:23.086Z,64.97
2022-12-27T22:38:51.310Z,75.18
2022-12-27T22:41:19.845Z,69.55
2022-12-27T22:43:52.436Z,84.88
2022-12-27T22:46:19.963Z,63.30
2022-12-27T22:48:51.806Z,69.13
2022-12-27T22:51:24.880Z,62.20
2022-12-27T22:53:52.255Z,74.30
2022-12-27T22:56:22.281Z,76.55
2022-12-27T22:58:49.731Z,95.65
2022-12-27T23:01:18.553Z,71.38
2022-12-27T23:03:45.984Z,93.97
2022-12-27T23:06:14.542Z,77.45
2022-12-27T23:08:43.340Z,72.47
2022-12-27T23:11:16.887Z,68.13
2022-12-27T23:13:44.066Z,65.47
2022-12-27T23:16:11.692Z,68.40
2022-12-27T23:18:41.715Z,81.97
2022-12-27T23:21:21.863Z,70.80
2022-12-27T23:23:52.586Z,76.82
2022-12-27T23:26:22.189Z,79.88
2022-12-27T23:28:50.413Z,79.05
2022-12-27T23:31:18.928Z,70.15
2022-12-27T23:33:46.043Z,73.78
2022-12-27T23:36:13.760Z,80.30
2022-12-27T23:38:44.319Z,74.70
2022-12-27T23:41:22.846Z,76.60
2022-12-27T23:43:53.652Z,80.93
2022-12-27T23:46:27.743Z,79.25
2022-12-27T23:48:56.072Z,83.75
2022-12-27T23:51:23.277Z,86.93
2022-12-27T23:53:50.578Z,81.82
2022-12-27T23:56:23.391Z,71.55
2022-12-27T23:58:53.513Z,96.97
